createdAt,value
2022-11-14T00:03:07.000Z,62.8
2022-11-14T00:06:40.000Z,83.7
2022-11-14T00:10:13.000Z,68
2022-11-14T00:13:45.000Z,62
2022-11-14T00:17:18.000Z,62.9
2022-11-14T00:20:51.000Z,76.4
2022-11-14T00:24:23.000Z,58.9
2022-11-14T00:27:56.000Z,57.7
2022-11-14T00:31:28.000Z,60.5
2022-11-14T00:34:20.000Z,50.7
2022-11-14T00:37:53.000Z,45.8
2022-11-14T00:41:25.000Z,56.7
2022-11-14T00:44:58.000Z,91.9
2022-11-14T00:48:31.000Z,61.2
2022-11-14T00:52:03.000Z,74.6
2022-11-14T00:55:36.000Z,76.1
2022-11-14T00:59:08.000Z,61.9
2022-11-14T01:02:41.000Z,58.5
2022-11-14T01:06:14.000Z,48.7
2022-11-14T01:09:46.000Z,89.3
2022-11-14T01:12:37.000Z,48.1
2022-11-14T01:16:10.000Z,61.6
2022-11-14T01:19:43.000Z,52.7
2022-11-14T01:23:15.000Z,65.2
2022-11-14T01:26:48.000Z,46.2
2022-11-14T01:30:20.000Z,42.8
2022-11-14T01:33:53.000Z,67.7
2022-11-14T01:37:26.000Z,47.6
2022-11-14T01:40:58.000Z,46.2
2022-11-14T01:44:31.000Z,67.6
2022-11-14T01:48:03.000Z,79.1
2022-11-14T01:50:54.000Z,72.6
2022-11-14T01:54:27.000Z,81.5
2022-11-14T01:58:00.000Z,58
2022-11-14T02:01:32.000Z,75.6
2022-11-14T02:05:05.000Z,61.2
2022-11-14T02:08:38.000Z,52.6
2022-11-14T02:12:10.000Z,87.1
2022-11-14T02:15:43.000Z,65.2
2022-11-14T02:19:29.000Z,39.8
2022-11-14T02:23:02.000Z,41.7
2022-11-14T02:26:35.000Z,62.1
2022-11-14T02:29:26.000Z,61.5
2022-11-14T02:32:58.000Z,43.2
2022-11-14T02:36:36.000Z,39.5
2022-11-14T02:40:09.000Z,37.8
2022-11-14T02:43:41.000Z,37.4
2022-11-14T02:47:14.000Z,45.6
2022-11-14T02:50:47.000Z,45.9
2022-11-14T02:54:19.000Z,57.6
2022-11-14T02:57:52.000Z,64
2022-11-14T03:01:25.000Z,60.3
2022-11-14T03:04:58.000Z,66.3
2022-11-14T03:07:49.000Z,75.2
2022-11-14T03:11:21.000Z,37.1
2022-11-14T03:14:54.000Z,48.1
2022-11-14T03:18:26.000Z,40.7
2022-11-14T03:21:59.000Z,39.1
2022-11-14T03:25:32.000Z,38.8
2022-11-14T03:29:04.000Z,52.8
2022-11-14T03:32:37.000Z,47.6
2022-11-14T03:36:10.000Z,31.7
2022-11-14T03:39:42.000Z,58.5
2022-11-14T03:43:15.000Z,43.8
2022-11-14T03:46:06.000Z,70.7
2022-11-14T03:49:38.000Z,39.2
2022-11-14T03:53:11.000Z,34.5
2022-11-14T03:56:44.000Z,41.5
2022-11-14T04:00:16.000Z,91.6
2022-11-14T04:03:49.000Z,38.4
2022-11-14T04:07:22.000Z,101.7
2022-11-14T04:10:54.000Z,78.2
2022-11-14T04:14:27.000Z,102.3
2022-11-14T04:18:00.000Z,71.3
2022-11-14T04:21:33.000Z,45.1
2022-11-14T04:24:24.000Z,58.4
2022-11-14T04:27:56.000Z,34.7
2022-11-14T04:31:29.000Z,42.2
2022-11-14T04:35:02.000Z,115
2022-11-14T04:38:34.000Z,32.2
2022-11-14T04:42:07.000Z,69.5
2022-11-14T04:45:39.000Z,31.9
2022-11-14T04:49:12.000Z,93.5
2022-11-14T04:52:45.000Z,39.3
2022-11-14T04:56:17.000Z,31.2
2022-11-14T04:59:50.000Z,32.4
2022-11-14T05:02:41.000Z,48.1
2022-11-14T05:06:14.000Z,33.6
2022-11-14T05:09:46.000Z,64.3
2022-11-14T05:13:25.000Z,55
2022-11-14T05:16:57.000Z,85.9
2022-11-14T05:20:31.000Z,64.9
2022-11-14T05:24:03.000Z,40.1
2022-11-14T05:27:36.000Z,40.9
2022-11-14T05:31:09.000Z,54.6
2022-11-14T05:34:41.000Z,46.7
2022-11-14T05:38:14.000Z,41.3
2022-11-14T05:41:05.000Z,41.5
2022-11-14T05:44:37.000Z,43.1
2022-11-14T05:48:10.000Z,37.9
2022-11-14T05:51:43.000Z,28.9
2022-11-14T05:55:15.000Z,42.7
2022-11-14T05:58:50.000Z,55.7
2022-11-14T06:02:23.000Z,71.6
2022-11-14T06:05:55.000Z,60.3
2022-11-14T06:09:28.000Z,42.5
2022-11-14T06:13:01.000Z,56
2022-11-14T06:16:33.000Z,54.1
2022-11-14T06:19:25.000Z,55.6
2022-11-14T06:22:57.000Z,40.4
2022-11-14T06:26:30.000Z,78.4
2022-11-14T06:30:02.000Z,65.7
2022-11-14T06:33:35.000Z,46.4
2022-11-14T06:37:08.000Z,35
2022-11-14T06:40:40.000Z,48.8
2022-11-14T06:44:13.000Z,41.8
2022-11-14T06:47:49.000Z,40
2022-11-14T06:51:21.000Z,75
2022-11-14T06:54:54.000Z,44.6
2022-11-14T06:57:45.000Z,42
2022-11-14T07:01:18.000Z,44.5
2022-11-14T07:04:51.000Z,28.2
2022-11-14T07:08:23.000Z,42.7
2022-11-14T07:11:56.000Z,51
2022-11-14T07:15:29.000Z,59
2022-11-14T07:19:02.000Z,58.8
2022-11-14T07:22:34.000Z,35.5
2022-11-14T07:26:07.000Z,49.8
2022-11-14T07:29:39.000Z,32
2022-11-14T07:33:12.000Z,26.2
2022-11-14T07:36:03.000Z,38.5
2022-11-14T07:39:36.000Z,50.9
2022-11-14T07:43:08.000Z,28.2
2022-11-14T07:46:41.000Z,26.2
2022-11-14T07:50:13.000Z,40.6
2022-11-14T07:53:46.000Z,35.9
2022-11-14T07:57:19.000Z,27.3
2022-11-14T08:00:51.000Z,26
2022-11-14T08:04:24.000Z,36
2022-11-14T08:07:57.000Z,24.8
2022-11-14T08:11:29.000Z,31.9
2022-11-14T08:14:20.000Z,27.2
2022-11-14T08:17:53.000Z,35.2
2022-11-14T08:21:26.000Z,33.5
2022-11-14T08:24:58.000Z,30
2022-11-14T08:28:33.000Z,35.9
2022-11-14T08:32:05.000Z,34.2
2022-11-14T08:35:38.000Z,31.8
2022-11-14T08:39:11.000Z,28.4
2022-11-14T08:42:43.000Z,27.2
2022-11-14T08:46:16.000Z,33.3
2022-11-14T08:49:49.000Z,29.3
2022-11-14T08:52:40.000Z,26.3
2022-11-14T08:56:13.000Z,46
2022-11-14T08:59:48.000Z,125.6
2022-11-14T09:03:21.000Z,44.6
2022-11-14T09:06:54.000Z,30.4
2022-11-14T09:10:27.000Z,49.8
2022-11-14T09:14:00.000Z,43.5
2022-11-14T09:17:33.000Z,27.6
2022-11-14T09:21:05.000Z,35
2022-11-14T09:24:38.000Z,41.3
2022-11-14T09:28:10.000Z,30.8
2022-11-14T09:31:02.000Z,40.4
2022-11-14T09:34:34.000Z,46.5
2022-11-14T09:38:07.000Z,42.3
2022-11-14T09:41:39.000Z,41.8
2022-11-14T09:45:12.000Z,38.7
2022-11-14T09:48:45.000Z,33.5
2022-11-14T09:52:24.000Z,37.7
2022-11-14T09:55:56.000Z,38.8
2022-11-14T09:59:29.000Z,38.6
2022-11-14T10:03:08.000Z,38.4
2022-11-14T10:06:40.000Z,33.6
2022-11-14T10:09:31.000Z,43.7
2022-11-14T10:13:04.000Z,36
2022-11-14T10:16:37.000Z,36.8
2022-11-14T10:20:10.000Z,37.3
2022-11-14T10:23:42.000Z,38.4
2022-11-14T10:27:15.000Z,47.3
2022-11-14T10:30:48.000Z,45.3
2022-11-14T10:34:20.000Z,54.4
2022-11-14T10:37:53.000Z,48.2
2022-11-14T10:41:26.000Z,37.9
2022-11-14T10:45:22.000Z,41.1
2022-11-14T10:48:13.000Z,43.2
2022-11-14T10:51:46.000Z,49.3
2022-11-14T10:55:18.000Z,46.2
2022-11-14T10:59:27.000Z,37.3
2022-11-14T11:03:00.000Z,37.3
2022-11-14T11:06:33.000Z,33.1
2022-11-14T11:10:40.000Z,33.7
2022-11-14T11:14:13.000Z,32.7
2022-11-14T11:17:46.000Z,33
2022-11-14T11:21:18.000Z,33.1
2022-11-14T11:24:51.000Z,31
2022-11-14T11:27:42.000Z,31.4
2022-11-14T11:31:15.000Z,31
2022-11-14T11:34:48.000Z,27.3
2022-11-14T11:38:20.000Z,30.5
2022-11-14T11:41:54.000Z,27.5
2022-11-14T11:45:38.000Z,29.2
2022-11-14T11:49:11.000Z,28.3
2022-11-14T11:52:44.000Z,26.2
2022-11-14T11:56:16.000Z,25
2022-11-14T11:59:49.000Z,23.6
2022-11-14T12:03:22.000Z,23
2022-11-14T12:06:13.000Z,22.8
2022-11-14T12:09:46.000Z,21.3
2022-11-14T12:13:35.000Z,21.4
2022-11-14T12:17:07.000Z,20.6
2022-11-14T12:20:40.000Z,20.4
2022-11-14T12:24:13.000Z,17.1
2022-11-14T12:27:45.000Z,17.2
2022-11-14T12:31:23.000Z,15.6
2022-11-14T12:34:56.000Z,16.5
2022-11-14T12:38:29.000Z,16.4
2022-11-14T12:42:01.000Z,21.5
2022-11-14T12:44:52.000Z,51.5
2022-11-14T12:48:25.000Z,15.2
2022-11-14T12:51:58.000Z,13.2
2022-11-14T12:55:31.000Z,16.1
2022-11-14T12:59:03.000Z,17.9
2022-11-14T13:02:36.000Z,14.3
2022-11-14T13:06:09.000Z,15.3
2022-11-14T13:09:41.000Z,16.4
2022-11-14T13:13:14.000Z,26.4
2022-11-14T13:16:47.000Z,15.4
2022-11-14T13:20:19.000Z,14.1
2022-11-14T13:23:11.000Z,14
2022-11-14T13:26:43.000Z,14.3
2022-11-14T13:30:23.000Z,14.9
2022-11-14T13:33:56.000Z,12.9
2022-11-14T13:37:29.000Z,15
2022-11-14T13:41:01.000Z,12.7
2022-11-14T13:44:34.000Z,12.1
2022-11-14T13:48:07.000Z,16.1
2022-11-14T13:51:39.000Z,15.6
2022-11-14T13:55:12.000Z,13.4
2022-11-14T13:58:44.000Z,13.2
2022-11-14T14:01:36.000Z,12.1
2022-11-14T14:05:08.000Z,15.1
2022-11-14T14:08:41.000Z,13.2
2022-11-14T14:12:13.000Z,12
2022-11-14T14:15:53.000Z,13.2
2022-11-14T14:19:26.000Z,12.2
2022-11-14T14:22:58.000Z,13
2022-11-14T14:26:31.000Z,11.3
2022-11-14T14:30:04.000Z,12
2022-11-14T14:33:36.000Z,11.2
2022-11-14T14:37:09.000Z,11.2
2022-11-14T14:40:00.000Z,12.3
2022-11-14T14:43:33.000Z,13.7
2022-11-14T14:47:05.000Z,13.2
2022-11-14T14:50:38.000Z,11.8
2022-11-14T14:54:10.000Z,13
2022-11-14T14:57:43.000Z,12
2022-11-14T15:01:16.000Z,11.2
2022-11-14T15:04:48.000Z,11.5
2022-11-14T15:08:21.000Z,11.4
2022-11-14T15:11:54.000Z,11.8
2022-11-14T15:15:27.000Z,16
2022-11-14T15:18:18.000Z,12
2022-11-14T15:21:51.000Z,14
2022-11-14T15:25:23.000Z,12.3
2022-11-14T15:28:56.000Z,11.6
2022-11-14T15:32:28.000Z,12.1
2022-11-14T15:36:01.000Z,11.9
2022-11-14T15:39:34.000Z,13.1
2022-11-14T15:43:07.000Z,31.9
2022-11-14T15:46:39.000Z,62.2
2022-11-14T15:50:12.000Z,30.5
2022-11-14T15:53:44.000Z,25.9
2022-11-14T15:56:35.000Z,57.8
2022-11-14T16:00:27.000Z,59.1
2022-11-14T16:04:00.000Z,40
2022-11-14T16:07:32.000Z,39.7
2022-11-14T16:11:05.000Z,37.2
2022-11-14T16:14:37.000Z,20.5
2022-11-14T16:18:10.000Z,16.9
2022-11-14T16:21:43.000Z,13.3
2022-11-14T16:25:15.000Z,12.1
2022-11-14T16:28:48.000Z,13.7
2022-11-14T16:32:21.000Z,13.6
2022-11-14T16:35:11.000Z,11.8
2022-11-14T16:38:44.000Z,10.9
2022-11-14T16:42:17.000Z,10.6
2022-11-14T16:45:50.000Z,11.4
2022-11-14T16:49:22.000Z,12.2
2022-11-14T16:52:55.000Z,10.6
2022-11-14T16:56:28.000Z,11.7
2022-11-14T17:00:00.000Z,9.2
2022-11-14T17:03:33.000Z,9.9
2022-11-14T17:07:06.000Z,11.5
2022-11-14T17:10:42.000Z,9.1
2022-11-14T17:13:33.000Z,10.7
2022-11-14T17:17:06.000Z,11.4
2022-11-14T17:20:39.000Z,12.6
2022-11-14T17:24:12.000Z,14.2
2022-11-14T17:27:44.000Z,13.5
2022-11-14T17:31:17.000Z,10.9
2022-11-14T17:34:55.000Z,15
2022-11-14T17:38:27.000Z,14
2022-11-14T17:42:00.000Z,12
2022-11-14T17:45:38.000Z,12.2
2022-11-14T17:49:11.000Z,11
2022-11-14T17:52:02.000Z,13.5
2022-11-14T17:55:34.000Z,11.1
2022-11-14T17:59:07.000Z,11.6
2022-11-14T18:02:39.000Z,11.4
2022-11-14T18:06:12.000Z,11.4
2022-11-14T18:09:44.000Z,10
2022-11-14T18:13:17.000Z,10.6
2022-11-14T18:16:50.000Z,11.4
2022-11-14T18:20:37.000Z,11.5
2022-11-14T18:24:10.000Z,12.7
2022-11-14T18:27:43.000Z,10.6
2022-11-14T18:30:34.000Z,12.2
2022-11-14T18:34:07.000Z,9.7
2022-11-14T18:37:40.000Z,11.1
2022-11-14T18:41:12.000Z,9.4
2022-11-14T18:44:45.000Z,12.4
2022-11-14T18:48:18.000Z,10.4
2022-11-14T18:51:50.000Z,9.8
2022-11-14T18:57:37.000Z,9.5
2022-11-14T19:01:10.000Z,11.3
2022-11-14T19:04:43.000Z,8.8
2022-11-14T19:08:15.000Z,11.1
2022-11-14T19:11:00.000Z,10
2022-11-14T19:14:32.000Z,11.3
2022-11-14T19:18:05.000Z,9.7
2022-11-14T19:21:38.000Z,10
2022-11-14T19:25:10.000Z,10.6
2022-11-14T19:28:43.000Z,12.4
2022-11-14T19:32:16.000Z,10.2
2022-11-14T19:35:48.000Z,9.4
2022-11-14T19:39:21.000Z,11.3
2022-11-14T19:42:54.000Z,9.8
2022-11-14T19:46:26.000Z,10.2
2022-11-14T19:49:17.000Z,8.7
2022-11-14T19:52:50.000Z,10.1
2022-11-14T19:56:22.000Z,10
2022-11-14T19:59:55.000Z,11.8
2022-11-14T20:03:28.000Z,8.4
2022-11-14T20:07:00.000Z,8.2
2022-11-14T20:10:33.000Z,10.3
2022-11-14T20:14:10.000Z,10.2
2022-11-14T20:17:42.000Z,8.8
2022-11-14T20:21:15.000Z,10.6
2022-11-14T20:24:47.000Z,8.8
2022-11-14T20:27:38.000Z,8.9
2022-11-14T20:31:11.000Z,8.2
2022-11-14T20:34:43.000Z,10.4
2022-11-14T20:38:16.000Z,8.3
2022-11-14T20:41:49.000Z,9.2
2022-11-14T20:45:21.000Z,8.6
2022-11-14T20:48:54.000Z,9.1
2022-11-14T20:52:26.000Z,10.4
2022-11-14T20:55:59.000Z,7.5
2022-11-14T20:59:31.000Z,9.2
2022-11-14T21:03:04.000Z,8.7
2022-11-14T21:05:55.000Z,7.8
2022-11-14T21:09:28.000Z,9.8
2022-11-14T21:13:00.000Z,9.2
2022-11-14T21:16:33.000Z,8
2022-11-14T21:20:06.000Z,8.3
2022-11-14T21:23:38.000Z,9
2022-11-14T21:27:11.000Z,7.8
2022-11-14T21:30:43.000Z,9.4
2022-11-14T21:34:16.000Z,7.7
2022-11-14T21:37:49.000Z,7.7
2022-11-14T21:41:21.000Z,10.6
2022-11-14T21:44:12.000Z,7.4
2022-11-14T21:47:45.000Z,9.3
2022-11-14T21:51:18.000Z,9.4
2022-11-14T21:54:50.000Z,9.5
2022-11-14T21:58:23.000Z,10.3
2022-11-14T22:01:55.000Z,8.7
2022-11-14T22:05:28.000Z,9.6
2022-11-14T22:09:01.000Z,9.2
2022-11-14T22:12:34.000Z,8.8
2022-11-14T22:16:06.000Z,6.8
2022-11-14T22:19:39.000Z,7.8
2022-11-14T22:22:31.000Z,9
2022-11-14T22:26:03.000Z,7.4
2022-11-14T22:29:36.000Z,8.2
2022-11-14T22:33:08.000Z,9.2
2022-11-14T22:36:41.000Z,8.9
2022-11-14T22:40:14.000Z,8.2
2022-11-14T22:43:47.000Z,6.2
2022-11-14T22:47:20.000Z,6.8
2022-11-14T22:50:52.000Z,8
2022-11-14T22:54:25.000Z,6.9
2022-11-14T22:57:58.000Z,8.9
2022-11-14T23:00:49.000Z,7.1
2022-11-14T23:04:21.000Z,9.3
2022-11-14T23:07:54.000Z,8.6
2022-11-14T23:11:27.000Z,9.2
2022-11-14T23:14:59.000Z,6.5
2022-11-14T23:18:32.000Z,8.3
2022-11-14T23:22:04.000Z,7.8
2022-11-14T23:25:37.000Z,7.1
2022-11-14T23:29:10.000Z,7.2
2022-11-14T23:32:42.000Z,9
2022-11-14T23:36:15.000Z,10.4
2022-11-14T23:39:06.000Z,7.1
2022-11-14T23:42:38.000Z,7.6
2022-11-14T23:46:11.000Z,9.4
2022-11-14T23:49:44.000Z,6.5
2022-11-14T23:53:16.000Z,8.4
2022-11-14T23:56:49.000Z,9.2
